Terminal Aerodrome Forecast
Issued by NWS

Home | Current Version | Previous Version | Text Only | Print | Product List | Glossary On
Versions: 1 2 3 4 5 6 7 8 9 10 11 12 13 14 15 16 17 18 19 20 21
000
FTUS41 KBOX 301721
TAFBAF
TAF
KBAF 301721Z 3018/3118 19005KT P6SM VCSH BKN020
     FM302000 19005KT P6SM VCTS BKN040CB
     FM310200 22005KT P6SM BKN050
     FM310600 VRB03KT 4SM BR BKN080
     FM310900 27004KT 2SM BR BKN090
     FM311100 30004KT P6SM SCT250=

USA.gov is the U.S. government's official web portal to all federal, state and local government web resources and services.